Time;durP1;ratioP1;P1;durP2;ratioP2;P2;SDS_P1;SDS_P2;PMS_P1;PMS_P2;Temp;Humidity;BMP_temperature;BMP_pressure;BME280_temperature;BME280_humidity;BME280_pressure;Samples;Min_cycle;Max_cycle;Signal;HPM_P1;HPM_P2
2022/11/27 00:01:47;;;;;;;26.77;12.02;;;;;;;-0.09;100.00;100536.31;5152962;27;20569;-47
2022/11/27 00:04:14;;;;;;;22.13;11.05;;;;;;;-0.22;100.00;100533.25;5153067;27;20050;-46
2022/11/27 00:06:41;;;;;;;19.48;9.75;;;;;;;-0.12;100.00;100538.72;5152333;27;20138;-46
2022/11/27 00:09:10;;;;;;;21.90;9.35;;;;;;;-0.06;100.00;100535.78;5152969;27;20047;-46
2022/11/27 00:11:39;;;;;;;23.38;9.63;;;;;;;0.06;100.00;100532.06;5152865;27;20153;-46
2022/11/27 00:14:06;;;;;;;18.23;8.90;;;;;;;0.03;100.00;100527.19;5152527;27;20061;-47
2022/11/27 00:16:32;;;;;;;14.80;8.50;;;;;;;0.03;100.00;100519.91;5152738;27;20051;-46
2022/11/27 00:18:58;;;;;;;18.60;10.20;;;;;;;0.03;100.00;100511.00;5153104;27;20043;-47
2022/11/27 00:21:28;;;;;;;18.05;9.18;;;;;;;0.03;100.00;100505.63;5152583;27;20086;-46
2022/11/27 00:23:56;;;;;;;15.38;8.85;;;;;;;-0.03;100.00;100489.44;5152912;27;20050;-47
2022/11/27 00:26:22;;;;;;;13.68;8.35;;;;;;;-0.01;100.00;100479.19;5152915;27;20046;-46
2022/11/27 00:28:49;;;;;;;15.82;9.43;;;;;;;-0.05;100.00;100467.31;5152685;27;20523;-48
2022/11/27 00:31:19;;;;;;;15.65;9.45;;;;;;;-0.08;100.00;100456.22;5152752;27;20153;-47
2022/11/27 00:33:46;;;;;;;29.48;9.82;;;;;;;0.01;100.00;100461.94;5152307;27;20086;-47
2022/11/27 00:36:14;;;;;;;18.92;9.27;;;;;;;-0.07;100.00;100444.38;5152458;27;20047;-46
2022/11/27 00:38:41;;;;;;;15.82;8.57;;;;;;;-0.19;100.00;100444.59;5152206;27;20058;-47
2022/11/27 00:41:08;;;;;;;15.27;8.15;;;;;;;-0.10;100.00;100450.28;5152423;27;20505;-47
2022/11/27 00:43:35;;;;;;;17.63;9.15;;;;;;;-0.01;100.00;100463.00;5152048;27;20133;-47
2022/11/27 00:46:02;;;;;;;15.80;8.38;;;;;;;-0.04;100.00;100454.63;5152124;27;20701;-47
2022/11/27 00:48:29;;;;;;;11.65;7.93;;;;;;;-0.01;100.00;100443.31;5152096;27;20051;-47
2022/11/27 00:50:59;;;;;;;15.65;8.70;;;;;;;-0.12;100.00;100442.47;5152133;27;20086;-49
2022/11/27 00:53:26;;;;;;;14.13;8.40;;;;;;;-0.09;100.00;100452.72;5152300;27;20517;-49
2022/11/27 00:55:54;;;;;;;15.75;9.40;;;;;;;-0.05;100.00;100450.31;5152034;27;20525;-49
2022/11/27 00:58:20;;;;;;;18.42;9.82;;;;;;;-0.36;100.00;100430.50;5152223;27;20098;-49
2022/11/27 01:00:53;;;;;;;15.70;8.93;;;;;;;-0.09;100.00;100455.44;5151926;27;20561;-47
2022/11/27 01:03:19;;;;;;;15.48;8.27;;;;;;;-0.11;100.00;100444.09;5152022;27;20137;-47
2022/11/27 01:05:45;;;;;;;18.77;8.85;;;;;;;-0.01;100.00;100457.59;5151917;27;20055;-47
2022/11/27 01:08:12;;;;;;;16.52;8.52;;;;;;;-0.19;100.00;100424.94;5151819;27;20556;-50
2022/11/27 01:10:38;;;;;;;18.00;9.32;;;;;;;-0.35;100.00;100441.00;5151752;27;20078;-49
2022/11/27 01:13:05;;;;;;;16.15;8.88;;;;;;;-0.17;100.00;100439.75;5152181;27;20046;-48
2022/11/27 01:15:31;;;;;;;14.45;8.38;;;;;;;-0.13;100.00;100434.66;5151795;27;20167;-49
2022/11/27 01:17:58;;;;;;;15.23;8.75;;;;;;;-0.24;100.00;100418.41;5150816;27;20462;-49
2022/11/27 01:20:24;;;;;;;16.13;9.13;;;;;;;-0.04;100.00;100424.97;5151923;27;20053;-46
2022/11/27 01:22:50;;;;;;;13.25;7.70;;;;;;;-0.10;100.00;100426.84;5151675;27;20078;-46
2022/11/27 01:25:17;;;;;;;14.55;8.40;;;;;;;-0.13;100.00;100423.88;5151654;27;20047;-47
2022/11/27 01:27:43;;;;;;;14.88;8.75;;;;;;;-0.13;100.00;100430.06;5151652;27;20422;-47
2022/11/27 01:30:11;;;;;;;14.98;7.68;;;;;;;-0.22;100.00;100420.88;5151855;27;20047;-46
2022/11/27 01:32:37;;;;;;;12.38;7.43;;;;;;;-0.21;100.00;100419.78;5151516;27;20054;-46
2022/11/27 01:35:04;;;;;;;12.45;6.90;;;;;;;-0.24;100.00;100426.50;5151577;27;20501;-47
2022/11/27 01:37:31;;;;;;;12.82;6.82;;;;;;;-0.38;100.00;100417.28;5151392;27;20122;-46
2022/11/27 01:39:57;;;;;;;13.32;7.43;;;;;;;-0.38;100.00;100435.31;5151776;27;20073;-46
2022/11/27 01:42:23;;;;;;;10.38;6.40;;;;;;;-0.32;100.00;100439.69;5151380;27;20095;-47
2022/11/27 01:44:53;;;;;;;9.07;5.53;;;;;;;-0.35;100.00;100424.03;5151298;27;20047;-47
2022/11/27 01:47:33;;;;;;;9.82;5.93;;;;;;;-0.31;100.00;100423.22;5151578;27;20043;-46
2022/11/27 01:50:08;;;;;;;8.38;5.57;;;;;;;-0.41;100.00;100419.69;5151354;27;20068;-46
2022/11/27 01:52:39;;;;;;;9.23;6.13;;;;;;;-0.46;100.00;100433.13;5151185;27;20058;-46
2022/11/27 01:55:08;;;;;;;10.20;6.32;;;;;;;-0.32;100.00;100436.97;5151536;27;20137;-46
2022/11/27 01:57:43;;;;;;;9.32;6.30;;;;;;;-0.43;100.00;100433.44;5151455;27;20094;-46
2022/11/27 02:00:12;;;;;;;10.93;5.97;;;;;;;-0.41;100.00;100436.66;5151290;27;20047;-47
2022/11/27 02:02:40;;;;;;;9.70;6.43;;;;;;;-0.47;100.00;100443.06;5151181;27;20424;-47
2022/11/27 02:05:07;;;;;;;9.35;5.45;;;;;;;-0.41;100.00;100462.78;5150952;27;20050;-47
2022/11/27 02:07:34;;;;;;;9.25;6.00;;;;;;;-0.40;100.00;100457.16;5151089;27;20057;-46
2022/11/27 02:10:00;;;;;;;12.43;6.20;;;;;;;-0.43;100.00;100452.28;5151327;27;20050;-46
2022/11/27 02:12:32;;;;;;;9.80;6.38;;;;;;;-0.38;100.00;100456.88;5151238;27;20103;-47
2022/11/27 02:15:08;;;;;;;13.32;6.75;;;;;;;-0.40;100.00;100462.53;5151253;27;20058;-47
2022/11/27 02:17:41;;;;;;;9.73;6.50;;;;;;;-0.31;100.00;100469.03;5151083;27;20458;-47
2022/11/27 02:20:26;;;;;;;11.63;6.57;;;;;;;-0.39;100.00;100457.97;5151478;27;20060;-46
2022/11/27 02:23:13;;;;;;;11.70;6.10;;;;;;;-0.39;100.00;100466.03;5150893;27;20053;-46
2022/11/27 02:25:51;;;;;;;10.50;6.80;;;;;;;-0.94;100.00;100462.69;5150678;27;20462;-47
2022/11/27 02:28:32;;;;;;;11.48;6.78;;;;;;;-0.56;100.00;100534.34;5151057;27;20047;-47
2022/11/27 02:31:07;;;;;;;11.35;7.40;;;;;;;-0.61;100.00;100531.59;5154559;27;20481;-46
2022/11/27 02:33:41;;;;;;;10.65;7.25;;;;;;;-0.44;100.00;100522.56;5154472;27;20081;-46
2022/11/27 02:36:11;;;;;;;11.93;7.35;;;;;;;-0.30;100.00;100512.97;5154147;27;20057;-47
2022/11/27 02:38:41;;;;;;;13.27;7.53;;;;;;;-0.25;100.00;100508.44;5154305;27;20047;-47
2022/11/27 02:41:13;;;;;;;10.00;6.22;;;;;;;-0.29;100.00;100499.25;5154429;27;20980;-47
2022/11/27 02:43:44;;;;;;;10.48;6.93;;;;;;;-0.28;100.00;100497.38;5154274;27;20061;-47
2022/11/27 02:46:13;;;;;;;12.70;7.00;;;;;;;-0.35;100.00;100492.19;5154483;27;20082;-47
2022/11/27 02:48:45;;;;;;;12.07;7.10;;;;;;;-0.42;100.00;100496.19;5154300;27;20138;-47
2022/11/27 02:51:13;;;;;;;12.75;7.82;;;;;;;-0.42;100.00;100490.81;5154077;27;20137;-47
2022/11/27 02:53:45;;;;;;;11.55;6.78;;;;;;;-0.49;100.00;100481.06;5153995;27;20072;-48
2022/11/27 02:56:17;;;;;;;12.77;7.95;;;;;;;-0.48;100.00;100490.75;5154271;27;20047;-48
2022/11/27 02:58:47;;;;;;;12.13;7.63;;;;;;;-0.45;100.00;100494.84;5153854;27;20516;-47
2022/11/27 03:01:17;;;;;;;11.15;6.68;;;;;;;-0.38;100.00;100510.78;5153868;27;20119;-50
2022/11/27 03:03:47;;;;;;;21.35;8.80;;;;;;;-0.45;100.00;100502.91;5154078;27;20114;-48
2022/11/27 03:06:20;;;;;;;17.83;8.13;;;;;;;-0.75;100.00;100523.16;5154012;27;20047;-46
2022/11/27 03:08:52;;;;;;;13.43;7.20;;;;;;;-0.43;100.00;100538.50;5154344;27;20352;-48
2022/11/27 03:11:18;;;;;;;14.48;8.15;;;;;;;-0.63;100.00;100541.00;5153745;27;20058;-46
2022/11/27 03:13:48;;;;;;;13.05;7.95;;;;;;;-0.44;100.00;100546.81;5154019;27;20089;-46
2022/11/27 03:16:22;;;;;;;12.80;7.03;;;;;;;-0.41;100.00;100538.22;5153627;27;20053;-46
2022/11/27 03:18:56;;;;;;;13.30;7.47;;;;;;;-0.39;100.00;100538.78;5153866;27;20061;-46
2022/11/27 03:21:29;;;;;;;13.20;7.68;;;;;;;-0.47;100.00;100531.97;5153859;27;20047;-47
2022/11/27 03:23:57;;;;;;;12.30;6.95;;;;;;;-0.56;100.00;100531.66;5153518;27;20056;-47
2022/11/27 03:26:24;;;;;;;12.93;7.10;;;;;;;-0.52;100.00;100535.47;5153774;27;20113;-48
2022/11/27 03:28:53;;;;;;;11.73;6.65;;;;;;;-0.55;100.00;100527.09;5153311;27;20047;-47
2022/11/27 03:31:21;;;;;;;11.23;6.88;;;;;;;-0.42;100.00;100534.72;5153797;27;20050;-47
2022/11/27 03:33:47;;;;;;;14.98;7.55;;;;;;;-0.42;100.00;100539.31;5153466;27;20047;-47
2022/11/27 03:36:17;;;;;;;9.70;5.75;;;;;;;-0.43;100.00;100534.97;5153680;27;20398;-48
2022/11/27 03:38:46;;;;;;;9.07;5.85;;;;;;;-0.70;100.00;100511.59;5153241;27;20078;-46
2022/11/27 03:41:20;;;;;;;10.88;6.78;;;;;;;-0.94;100.00;100516.50;5152768;27;20053;-47
2022/11/27 03:43:54;;;;;;;12.20;6.40;;;;;;;-0.69;100.00;100526.72;5153396;27;20204;-47
2022/11/27 03:46:27;;;;;;;9.73;5.75;;;;;;;-0.77;100.00;100516.38;5153220;27;20493;-47
2022/11/27 03:49:00;;;;;;;9.43;5.90;;;;;;;-0.69;100.00;100529.41;5153080;27;20429;-47
2022/11/27 03:51:38;;;;;;;12.52;6.82;;;;;;;-0.74;100.00;100540.13;5153169;27;20057;-47
2022/11/27 03:54:12;;;;;;;11.52;6.63;;;;;;;-0.68;100.00;100539.09;5153140;27;20071;-46
2022/11/27 03:56:42;;;;;;;10.65;6.00;;;;;;;-0.68;100.00;100533.72;5152900;27;20154;-47
2022/11/27 03:59:14;;;;;;;11.27;6.03;;;;;;;-1.02;100.00;100517.81;5152951;27;20055;-46
2022/11/27 04:01:42;;;;;;;10.52;6.05;;;;;;;-0.91;100.00;100547.50;5153004;27;20081;-46
2022/11/27 04:04:08;;;;;;;10.63;5.97;;;;;;;-0.93;100.00;100555.84;5152842;27;20051;-47
2022/11/27 04:06:35;;;;;;;12.20;6.07;;;;;;;-1.19;100.00;100571.72;5152915;27;20138;-46
2022/11/27 04:09:01;;;;;;;10.85;5.50;;;;;;;-1.14;100.00;100597.06;5152757;27;20090;-46
2022/11/27 04:11:27;;;;;;;9.15;5.70;;;;;;;-0.88;100.00;100615.13;5152991;27;20087;-46
2022/11/27 04:13:54;;;;;;;8.52;5.65;;;;;;;-0.88;100.00;100612.41;5152812;27;20051;-48
2022/11/27 04:16:20;;;;;;;8.85;5.43;;;;;;;-0.82;100.00;100611.41;5153080;27;20161;-46
2022/11/27 04:18:47;;;;;;;10.30;6.10;;;;;;;-0.78;100.00;100601.75;5152969;27;20082;-47
2022/11/27 04:21:13;;;;;;;11.88;6.18;;;;;;;-0.88;100.00;100603.53;5153087;27;20057;-46
2022/11/27 04:23:40;;;;;;;8.85;5.50;;;;;;;-0.74;100.00;100599.34;5152970;27;20091;-49
2022/11/27 04:26:06;;;;;;;13.35;6.30;;;;;;;-0.73;100.00;100587.53;5152643;27;20146;-47
2022/11/27 04:28:32;;;;;;;15.77;6.38;;;;;;;-0.64;100.00;100575.22;5152457;27;20047;-47
2022/11/27 04:30:59;;;;;;;10.35;6.28;;;;;;;-0.82;100.00;100565.63;5152839;27;20412;-47
2022/11/27 04:33:25;;;;;;;10.55;6.15;;;;;;;-0.84;100.00;100569.66;5152424;27;20046;-48
2022/11/27 04:35:52;;;;;;;11.90;6.43;;;;;;;-1.04;100.00;100579.13;5152329;27;20057;-47
2022/11/27 04:38:19;;;;;;;12.57;5.90;;;;;;;-0.80;100.00;100593.13;5152428;27;20097;-49
2022/11/27 04:40:45;;;;;;;7.68;5.30;;;;;;;-0.73;100.00;100592.94;5152362;27;20047;-47
2022/11/27 04:43:12;;;;;;;9.98;5.85;;;;;;;-0.80;100.00;100584.22;5152280;27;20126;-47
2022/11/27 04:45:38;;;;;;;8.73;5.82;;;;;;;-0.89;100.00;100580.38;5152035;27;20050;-47
2022/11/27 04:48:05;;;;;;;9.70;6.43;;;;;;;-0.89;100.00;100586.56;5152425;27;20069;-47
2022/11/27 04:50:32;;;;;;;9.18;5.43;;;;;;;-0.96;100.00;100585.97;5152180;27;20046;-47
2022/11/27 04:52:59;;;;;;;9.85;5.55;;;;;;;-0.89;100.00;100591.16;5152141;27;20047;-47
2022/11/27 04:55:25;;;;;;;9.68;5.45;;;;;;;-1.09;100.00;100587.16;5152146;27;20475;-47
2022/11/27 04:57:52;;;;;;;8.40;5.47;;;;;;;-0.97;100.00;100603.16;5151965;27;20047;-48
2022/11/27 05:00:20;;;;;;;9.45;5.18;;;;;;;-0.88;100.00;100611.63;5151852;27;20091;-47
2022/11/27 05:02:46;;;;;;;10.80;6.03;;;;;;;-0.95;100.00;100596.47;5152109;27;20090;-47
2022/11/27 05:05:12;;;;;;;9.93;5.70;;;;;;;-0.82;100.00;100589.06;5152067;27;20123;-47
2022/11/27 05:07:39;;;;;;;11.00;6.15;;;;;;;-0.79;100.00;100575.91;5152143;27;20055;-49
2022/11/27 05:10:07;;;;;;;8.95;6.13;;;;;;;-0.78;100.00;100571.31;5151966;27;20046;-47
2022/11/27 05:12:33;;;;;;;8.77;6.00;;;;;;;-0.75;100.00;100578.91;5151747;27;20501;-48
2022/11/27 05:15:00;;;;;;;9.05;6.20;;;;;;;-0.73;100.00;100576.78;5151833;27;20095;-48
2022/11/27 05:17:26;;;;;;;8.80;5.78;;;;;;;-0.68;100.00;100584.88;5151659;27;20565;-50
2022/11/27 05:19:52;;;;;;;10.35;6.20;;;;;;;-0.73;100.00;100584.84;5151628;27;20137;-46
2022/11/27 05:22:19;;;;;;;11.88;6.78;;;;;;;-0.63;100.00;100592.19;5151654;27;20046;-47
2022/11/27 05:24:45;;;;;;;11.07;6.28;;;;;;;-0.61;100.00;100590.06;5151576;27;20057;-46
2022/11/27 05:27:12;;;;;;;10.23;6.20;;;;;;;-0.84;100.00;100586.59;5151892;27;20051;-47
2022/11/27 05:29:39;;;;;;;9.43;5.78;;;;;;;-0.86;100.00;100596.84;5152020;27;20082;-46
2022/11/27 05:32:05;;;;;;;7.85;5.53;;;;;;;-0.76;100.00;100598.81;5151729;27;20429;-46
2022/11/27 05:34:31;;;;;;;11.30;5.60;;;;;;;-0.78;100.00;100592.88;5151406;27;20058;-47
2022/11/27 05:36:57;;;;;;;12.30;6.32;;;;;;;-0.71;100.00;100591.59;5151647;27;20049;-47
2022/11/27 05:39:24;;;;;;;11.63;6.25;;;;;;;-0.66;100.00;100574.69;5151355;27;20137;-47
2022/11/27 05:41:50;;;;;;;9.25;5.72;;;;;;;-0.86;100.00;100561.84;5151587;27;20089;-47
2022/11/27 05:44:17;;;;;;;12.25;5.72;;;;;;;-0.96;100.00;100583.28;5151398;27;20133;-47
2022/11/27 05:46:44;;;;;;;9.48;5.70;;;;;;;-0.96;100.00;100573.31;5151188;27;20103;-46
2022/11/27 05:49:12;;;;;;;10.98;5.90;;;;;;;-0.91;100.00;100566.34;5151169;27;20046;-47
2022/11/27 05:51:39;;;;;;;9.23;5.38;;;;;;;-0.92;100.00;100572.81;5151586;27;20054;-46
2022/11/27 05:54:05;;;;;;;8.73;6.28;;;;;;;-0.90;100.00;100581.44;5151095;27;20103;-46
2022/11/27 05:56:31;;;;;;;8.95;6.32;;;;;;;-1.02;100.00;100595.06;5150839;27;20482;-47
2022/11/27 05:58:58;;;;;;;9.52;6.00;;;;;;;-0.93;100.00;100617.78;5151088;27;20402;-48
2022/11/27 06:01:25;;;;;;;12.65;7.50;;;;;;;-0.98;100.00;100629.28;5151189;27;20099;-47
2022/11/27 06:03:51;;;;;;;9.82;6.57;;;;;;;-0.81;100.00;100641.84;5151437;27;20175;-47
2022/11/27 06:06:19;;;;;;;8.27;6.00;;;;;;;-0.81;100.00;100623.81;5154733;27;20047;-48
2022/11/27 06:08:47;;;;;;;8.73;5.80;;;;;;;-0.71;100.00;100628.47;5154993;27;20129;-47
2022/11/27 06:11:15;;;;;;;9.43;5.88;;;;;;;-0.78;100.00;100625.19;5154688;27;20050;-47
2022/11/27 06:13:42;;;;;;;10.02;6.22;;;;;;;-0.78;100.00;100628.69;5154906;27;20050;-47
2022/11/27 06:16:11;;;;;;;9.32;5.55;;;;;;;-0.83;100.00;100620.56;5154620;27;20086;-49
2022/11/27 06:18:38;;;;;;;12.07;6.25;;;;;;;-0.96;100.00;100599.44;5154602;27;20046;-47
2022/11/27 06:21:07;;;;;;;10.05;6.18;;;;;;;-1.17;100.00;100601.06;5154390;27;20047;-46
2022/11/27 06:23:34;;;;;;;10.13;6.05;;;;;;;-1.06;100.00;100629.75;5154563;27;20042;-46
2022/11/27 06:26:12;;;;;;;9.05;5.55;;;;;;;-0.89;100.00;100640.41;5154577;27;20137;-47
2022/11/27 06:28:39;;;;;;;12.30;6.40;;;;;;;-0.87;100.00;100645.53;5154400;27;20099;-47
2022/11/27 06:31:07;;;;;;;12.15;6.63;;;;;;;-1.01;100.00;100642.44;5154641;27;20046;-46
2022/11/27 06:33:34;;;;;;;9.65;6.20;;;;;;;-0.79;100.00;100659.38;5154196;27;20096;-46
2022/11/27 06:36:01;;;;;;;11.30;6.85;;;;;;;-0.74;100.00;100655.91;5154415;27;20532;-47
2022/11/27 06:38:27;;;;;;;9.60;6.00;;;;;;;-0.71;100.00;100658.09;5154380;27;20130;-46
2022/11/27 06:40:54;;;;;;;11.27;6.15;;;;;;;-0.91;100.00;100647.13;5154124;27;20084;-47
2022/11/27 06:43:20;;;;;;;10.07;6.43;;;;;;;-0.94;100.00;100648.44;5154304;27;20046;-47
2022/11/27 06:45:55;;;;;;;9.45;6.00;;;;;;;-0.93;100.00;100652.75;5154262;27;20502;-47
2022/11/27 06:48:21;;;;;;;9.13;5.70;;;;;;;-0.83;100.00;100652.06;5154037;27;20066;-47
2022/11/27 06:50:47;;;;;;;8.57;5.65;;;;;;;-1.29;100.00;100638.06;5153750;27;20046;-47
2022/11/27 06:53:14;;;;;;;12.80;6.30;;;;;;;-1.27;100.00;100660.13;5154118;27;20394;-46
2022/11/27 06:55:41;;;;;;;13.65;7.30;;;;;;;-1.12;100.00;100671.09;5153839;27;20046;-48
2022/11/27 06:58:07;;;;;;;9.82;6.75;;;;;;;-0.88;100.00;100685.13;5153956;27;20386;-48
2022/11/27 07:00:33;;;;;;;11.57;6.95;;;;;;;-0.90;100.00;100676.50;5153699;27;20518;-46
2022/11/27 07:02:59;;;;;;;11.60;5.90;;;;;;;-1.33;100.00;100680.81;5153733;27;20055;-47
2022/11/27 07:05:26;;;;;;;11.70;6.00;;;;;;;-1.10;100.00;100698.59;5153694;27;20053;-47
2022/11/27 07:07:52;;;;;;;9.57;6.00;;;;;;;-0.79;100.00;100705.16;5153810;27;20150;-47
2022/11/27 07:10:19;;;;;;;9.63;6.20;;;;;;;-0.74;100.00;100686.34;5153785;27;20099;-49
2022/11/27 07:12:45;;;;;;;10.05;6.10;;;;;;;-0.74;100.00;100680.97;5153677;27;20137;-47
2022/11/27 07:15:11;;;;;;;11.52;6.78;;;;;;;-0.80;100.00;100668.53;5153172;27;20246;-47
2022/11/27 07:17:38;;;;;;;11.35;6.18;;;;;;;-0.81;100.00;100661.50;5153586;27;20042;-48
2022/11/27 07:20:05;;;;;;;13.10;6.95;;;;;;;-0.75;100.00;100670.44;5154229;27;20061;-47
2022/11/27 07:22:32;;;;;;;10.88;6.38;;;;;;;-0.56;100.00;100658.28;5153914;27;20048;-50
2022/11/27 07:24:58;;;;;;;11.35;6.82;;;;;;;-0.66;100.00;100644.69;5154032;27;20375;-49
2022/11/27 07:27:25;;;;;;;11.93;6.90;;;;;;;-0.72;100.00;100632.25;5153620;27;20051;-46
2022/11/27 07:29:52;;;;;;;13.85;7.57;;;;;;;-1.12;100.00;100611.09;5153870;27;20042;-47
2022/11/27 07:32:18;;;;;;;11.90;7.20;;;;;;;-1.01;100.00;100645.94;5153514;27;20077;-47
2022/11/27 07:34:44;;;;;;;10.65;6.20;;;;;;;-0.95;100.00;100654.88;5153700;27;20134;-47
2022/11/27 07:37:11;;;;;;;11.43;6.20;;;;;;;-0.70;100.00;100665.09;5153432;27;20047;-47
2022/11/27 07:39:37;;;;;;;11.18;6.20;;;;;;;-0.60;100.00;100654.47;5153434;27;20053;-47
2022/11/27 07:42:03;;;;;;;11.23;6.40;;;;;;;-0.85;100.00;100640.72;5153408;27;20051;-47
2022/11/27 07:44:30;;;;;;;14.00;7.85;;;;;;;-0.89;100.00;100651.19;5153045;27;20154;-46
2022/11/27 07:46:57;;;;;;;14.80;7.50;;;;;;;-0.97;100.00;100636.31;5153203;27;20505;-46
2022/11/27 07:49:23;;;;;;;12.13;6.63;;;;;;;-0.82;100.00;100657.19;5153122;27;20046;-46
2022/11/27 07:51:49;;;;;;;10.57;6.85;;;;;;;-1.04;100.00;100646.44;5153384;27;20051;-47
2022/11/27 07:54:15;;;;;;;12.07;6.25;;;;;;;-0.91;100.00;100664.06;5153029;27;20099;-47
2022/11/27 07:56:42;;;;;;;9.18;5.97;;;;;;;-0.80;100.00;100678.47;5153172;27;20428;-48
2022/11/27 07:59:08;;;;;;;10.57;6.20;;;;;;;-0.80;100.00;100684.69;5152970;27;20054;-47
2022/11/27 08:01:35;;;;;;;13.32;6.63;;;;;;;-0.69;100.00;100690.19;5153220;27;20050;-47
2022/11/27 08:04:01;;;;;;;12.30;6.82;;;;;;;-0.81;100.00;100688.44;5153045;27;20050;-47
2022/11/27 08:06:28;;;;;;;12.52;7.03;;;;;;;-0.59;100.00;100693.78;5152801;27;20047;-47
2022/11/27 08:08:55;;;;;;;13.73;7.72;;;;;;;-0.58;100.00;100676.56;5152873;27;20141;-48
2022/11/27 08:11:23;;;;;;;14.38;7.38;;;;;;;-0.61;100.00;100676.25;5152638;27;20054;-48
2022/11/27 08:13:56;;;;;;;13.57;7.93;;;;;;;-0.72;100.00;100673.44;5153083;27;20501;-51
2022/11/27 08:16:22;;;;;;;11.32;6.88;;;;;;;-0.78;100.00;100665.56;5152797;27;20490;-47
2022/11/27 08:18:49;;;;;;;14.02;7.07;;;;;;;-0.69;100.00;100660.56;5152900;27;20092;-47
2022/11/27 08:21:16;;;;;;;14.77;8.07;;;;;;;-0.54;100.00;100664.19;5152588;27;20046;-48
2022/11/27 08:23:42;;;;;;;12.05;6.68;;;;;;;-0.62;100.00;100650.38;5152758;27;20076;-48
2022/11/27 08:26:09;;;;;;;11.88;6.70;;;;;;;-1.14;100.00;100632.03;5152517;27;20046;-47
2022/11/27 08:28:36;;;;;;;12.57;7.13;;;;;;;-1.26;100.00;100661.78;5152271;27;20046;-48
2022/11/27 08:31:06;;;;;;;12.48;7.45;;;;;;;-1.17;100.00;100671.03;5152366;27;20047;-47
2022/11/27 08:33:33;;;;;;;20.05;7.35;;;;;;;-1.13;100.00;100669.50;5152325;27;20043;-48
2022/11/27 08:36:00;;;;;;;11.45;6.50;;;;;;;-1.08;100.00;100687.56;5152491;27;20046;-49
2022/11/27 08:38:27;;;;;;;11.48;6.95;;;;;;;-0.99;100.00;100703.03;5152372;27;20046;-48
2022/11/27 08:40:54;;;;;;;14.07;7.30;;;;;;;-0.95;100.00;100714.91;5152219;27;20050;-48
2022/11/27 08:43:21;;;;;;;14.93;7.70;;;;;;;-0.81;100.00;100717.22;5152391;27;20105;-47
2022/11/27 08:45:47;;;;;;;13.40;7.28;;;;;;;-0.83;100.00;100728.28;5152349;27;20047;-47
2022/11/27 08:48:13;;;;;;;14.38;7.72;;;;;;;-0.97;100.00;100725.16;5152318;27;20103;-46
2022/11/27 08:50:40;;;;;;;14.25;7.07;;;;;;;-0.88;100.00;100732.78;5152410;27;20486;-47
2022/11/27 08:53:07;;;;;;;14.60;7.85;;;;;;;-1.03;100.00;100723.44;5152025;27;20054;-48
2022/11/27 08:55:33;;;;;;;13.15;7.57;;;;;;;-1.23;100.00;100712.41;5152377;27;20055;-46
2022/11/27 08:57:59;;;;;;;16.77;8.10;;;;;;;-1.13;100.00;100728.69;5152227;27;20581;-46
2022/11/27 09:00:26;;;;;;;21.23;8.60;;;;;;;-0.99;100.00;100740.72;5152139;27;20077;-47
2022/11/27 09:02:52;;;;;;;20.17;9.57;;;;;;;-0.99;100.00;100735.34;5151963;27;20082;-48
2022/11/27 09:05:18;;;;;;;17.25;8.43;;;;;;;-0.73;100.00;100735.66;5151873;27;20130;-49
2022/11/27 09:07:44;;;;;;;18.80;9.05;;;;;;;-0.69;100.00;100728.69;5151968;27;20053;-46
2022/11/27 09:10:12;;;;;;;15.05;8.27;;;;;;;-0.62;100.00;100715.84;5152280;27;20082;-48
2022/11/27 09:12:38;;;;;;;18.10;9.43;;;;;;;-0.83;100.00;100698.66;5151971;27;20099;-50
2022/11/27 09:15:05;;;;;;;17.63;9.30;;;;;;;-0.98;100.00;100688.50;5151647;27;20093;-46
2022/11/27 09:17:31;;;;;;;15.88;8.77;;;;;;;-0.69;100.00;100700.97;5151904;27;20084;-47
2022/11/27 09:19:58;;;;;;;18.27;8.80;;;;;;;-1.19;100.00;100700.91;5151566;27;20051;-47
2022/11/27 09:22:24;;;;;;;17.42;8.10;;;;;;;-1.08;100.00;100704.53;5151684;27;20051;-46
2022/11/27 09:24:50;;;;;;;17.00;8.85;;;;;;;-1.19;100.00;100705.47;5151467;27;20102;-47
2022/11/27 09:27:17;;;;;;;13.52;7.78;;;;;;;-1.06;100.00;100715.88;5151539;27;20099;-47
2022/11/27 09:29:43;;;;;;;17.38;9.07;;;;;;;-1.15;100.00;100714.66;5151630;27;20509;-48
2022/11/27 09:32:10;;;;;;;16.42;8.45;;;;;;;-0.90;100.00;100729.50;5151621;27;20053;-46
2022/11/27 09:34:36;;;;;;;16.95;8.10;;;;;;;-0.81;100.00;100712.66;5151469;27;20087;-46
2022/11/27 09:37:04;;;;;;;18.13;7.40;;;;;;;-0.99;100.00;100716.50;5151801;27;20489;-47
2022/11/27 09:39:32;;;;;;;16.55;8.48;;;;;;;-0.95;100.00;100692.56;5150454;27;20134;-47
2022/11/27 09:42:01;;;;;;;17.88;9.00;;;;;;;-0.62;100.00;100685.41;5151455;27;20074;-46
2022/11/27 09:44:34;;;;;;;17.92;8.70;;;;;;;-0.54;100.00;100658.81;5151415;27;20054;-47
2022/11/27 09:47:10;;;;;;;14.60;7.75;;;;;;;-0.65;100.00;100637.44;5151297;27;20057;-47
2022/11/27 09:49:43;;;;;;;15.48;8.80;;;;;;;-0.57;100.00;100624.31;5151435;27;20406;-47
2022/11/27 09:52:17;;;;;;;18.58;8.90;;;;;;;-0.59;100.00;100625.66;5151296;27;20102;-48
2022/11/27 09:54:47;;;;;;;;;;;;;;;-0.55;100.00;100614.09;5151688;27;20100;-48
2022/11/27 09:57:16;;;;;;;15.65;8.55;;;;;;;-0.52;100.00;100616.28;5151545;27;20041;-47
2022/11/27 09:59:48;;;;;;;18.25;9.15;;;;;;;-0.49;100.00;100598.78;5151161;27;20049;-51
2022/11/27 10:02:17;;;;;;;15.57;8.90;;;;;;;-0.54;100.00;100585.28;5151123;27;20145;-47
2022/11/27 10:04:43;;;;;;;18.45;8.32;;;;;;;-0.36;100.00;100576.81;5151262;27;20402;-46
2022/11/27 10:07:20;;;;;;;13.35;8.25;;;;;;;-0.38;100.00;100560.06;5151170;27;20518;-47
2022/11/27 10:10:11;;;;;;;13.40;6.97;;;;;;;-0.40;100.00;100537.16;5151182;27;20501;-49
2022/11/27 10:12:48;;;;;;;14.85;7.57;;;;;;;-0.80;100.00;100516.91;5151691;27;20047;-47
2022/11/27 10:15:27;;;;;;;13.55;7.03;;;;;;;-1.01;100.00;100548.22;5151315;27;20050;-47
2022/11/27 10:18:00;;;;;;;12.30;7.03;;;;;;;-0.76;100.00;100580.78;5151128;27;20420;-47
2022/11/27 10:20:34;;;;;;;15.63;8.17;;;;;;;-1.30;100.00;100571.84;5150971;27;20085;-48
2022/11/27 10:23:07;;;;;;;13.82;7.47;;;;;;;-1.82;100.00;100605.38;5151037;27;20276;-47
2022/11/27 10:25:39;;;;;;;15.20;7.70;;;;;;;-1.21;100.00;100667.22;5150962;27;20106;-46
2022/11/27 10:28:28;;;;;;;15.35;7.60;;;;;;;-0.97;100.00;100657.84;5150966;27;20053;-48
2022/11/27 10:31:02;;;;;;;12.43;7.60;;;;;;;-0.69;100.00;100626.34;5150556;27;20049;-46
2022/11/27 10:33:37;;;;;;;12.80;7.57;;;;;;;-0.64;100.00;100591.38;5150740;27;20116;-46
2022/11/27 10:36:09;;;;;;;15.18;8.57;;;;;;;-0.76;100.00;100572.69;5150824;27;20047;-47
2022/11/27 10:38:40;;;;;;;12.70;7.63;;;;;;;-0.78;100.00;100565.94;5150943;27;20051;-47
2022/11/27 10:41:13;;;;;;;12.35;7.47;;;;;;;-0.88;100.00;100537.03;5150574;27;20047;-46
2022/11/27 10:43:40;;;;;;;14.25;7.53;;;;;;;-0.50;100.00;100529.81;5150775;27;20042;-47
2022/11/27 10:46:13;;;;;;;14.23;7.85;;;;;;;-0.79;100.00;100503.19;5150694;27;20057;-47
2022/11/27 10:48:39;;;;;;;13.70;7.77;;;;;;;-0.83;100.00;100507.47;5150706;27;20515;-47
2022/11/27 10:51:14;;;;;;;12.85;7.43;;;;;;;-1.16;100.00;100540.81;5152814;27;20051;-47
2022/11/27 10:53:42;;;;;;;15.25;7.55;;;;;;;-0.84;100.00;100589.31;5153970;27;20049;-47
2022/11/27 10:56:43;;;;;;;11.52;7.05;;;;;;;-0.87;100.00;100591.69;5153984;27;20058;-51
2022/11/27 10:59:13;;;;;;;12.80;7.28;;;;;;;-0.66;100.00;100555.81;5154239;27;20051;-47
2022/11/27 11:01:45;;;;;;;14.48;7.95;;;;;;;-0.56;100.00;100528.16;5154307;27;20551;-48
2022/11/27 11:04:14;;;;;;;11.70;7.35;;;;;;;-0.74;100.00;100503.22;5153768;27;20047;-49
2022/11/27 11:06:43;;;;;;;10.80;6.88;;;;;;;-0.66;100.00;100490.38;5154163;27;20133;-47
2022/11/27 11:09:15;;;;;;;13.88;7.30;;;;;;;-0.47;100.00;100478.09;5153884;27;20062;-47
2022/11/27 11:11:41;;;;;;;13.27;7.95;;;;;;;-0.45;100.00;100457.13;5153965;27;20099;-49
2022/11/27 11:14:16;;;;;;;13.95;8.40;;;;;;;-0.97;100.00;100438.97;5153779;27;20058;-47
2022/11/27 11:16:43;;;;;;;;;;;;;;;-0.83;100.00;100493.22;5154207;27;20137;-48
2022/11/27 11:19:22;;;;;;;13.70;8.43;;;;;;;-1.34;100.00;100506.16;5153746;27;20010;-47